Time;durP1;ratioP1;P1;durP2;ratioP2;P2;SDS_P1;SDS_P2;PMS_P1;PMS_P2;Temp;Humidity;BMP_temperature;BMP_pressure;BME280_temperature;BME280_humidity;BME280_pressure;Samples;Min_cycle;Max_cycle;Signal;HPM_P1;HPM_P2
2023/03/29 00:02:39;;;;;;;;;;;;;;;29.31;61.86;101115.03;5075582;27;66658;-43
2023/03/29 00:05:11;;;;;;;;;;;;;;;29.36;61.62;101127.91;5079741;27;70951;-44
2023/03/29 00:07:41;;;;;;;;;;;;;;;29.40;62.33;101121.91;5081606;27;66288;-45
2023/03/29 00:10:12;;;;;;;;;;;;;;;29.45;61.87;101126.69;5078840;27;70445;-43
2023/03/29 00:12:43;;;;;;;;;;;;;;;29.48;62.24;101120.88;5072847;28;66576;-43
2023/03/29 00:15:13;;;;;;;;;;;;;;;29.55;63.01;101131.69;5079114;27;69401;-43
2023/03/29 00:17:43;;;;;;;;;;;;;;;29.56;63.41;101127.94;5079998;27;66110;-43
2023/03/29 00:20:14;;;;;;;;;;;;;;;29.59;64.03;101128.38;5060714;28;70247;-43
2023/03/29 00:22:45;;;;;;;;;;;;;;;29.62;63.74;101132.56;5081045;27;66574;-44
2023/03/29 00:25:15;;;;;;;;;;;;;;;29.66;63.85;101127.59;5079043;27;70599;-44
2023/03/29 00:27:46;;;;;;;;;;;;;;;29.69;64.24;101130.69;5080236;27;65359;-43
2023/03/29 00:30:17;;;;;;;;;;;;;;;29.70;64.54;101128.81;5062026;28;69900;-43
2023/03/29 00:32:47;;;;;;;;;;;;;;;29.73;65.02;101129.28;5076739;27;67490;-43
2023/03/29 00:35:17;;;;;;;;;;;;;;;29.76;64.91;101134.25;5077864;27;69156;-43
2023/03/29 00:37:49;;;;;;;;;;;;;;;29.78;65.26;101137.59;5079314;28;66603;-42
2023/03/29 00:40:20;;;;;;;;;;;;;;;29.81;65.11;101130.91;5079811;27;69888;-42
2023/03/29 00:42:50;;;;;;;;;;;;;;;29.79;63.91;101136.56;5094667;27;66006;-42
2023/03/29 00:45:21;;;;;;;;;;;;;;;29.79;62.41;101133.03;5060429;28;70796;-42
2023/03/29 00:47:58;;;;;;;;;;;;;;;29.80;61.78;101135.50;5080986;27;66304;-41
2023/03/29 00:50:31;;;;;;;;;;;;;;;29.83;60.57;101143.19;5077890;27;70045;-41
2023/03/29 00:53:04;;;;;;;;;;;;;;;29.87;60.73;101145.50;5058836;28;66860;-42
2023/03/29 00:55:41;;;;;;;;;;;;;;;29.88;60.78;101148.00;5058234;28;62860;-43
2023/03/29 00:58:14;;;;;;;;;;;;;;;29.93;60.62;101150.09;5056278;28;66468;-42
2023/03/29 01:00:51;;;;;;;;;;;;;;;29.94;60.21;101151.75;5072966;27;70278;-42
2023/03/29 01:03:26;;;;;;;;;;;;;;;29.96;59.93;101150.50;5054099;27;68007;-42
2023/03/29 01:06:00;;;;;;;;;;;;;;;29.99;59.37;101149.25;5057561;28;71124;-42
2023/03/29 01:08:32;;;;;;;;;;;;;;;30.01;59.57;101147.19;5049784;28;65865;-42
2023/03/29 01:11:10;;;;;;;;;;;;;;;30.02;58.75;101143.41;5054031;28;69167;-43
2023/03/29 01:13:43;;;;;;;;;;;;;;;30.05;59.07;101149.25;5068808;27;66055;-42
2023/03/29 01:16:14;;;;;;;;;;;;;;;30.06;58.77;101144.66;5071050;27;70594;-42
2023/03/29 01:18:45;;;;;;;;;;;;;;;30.08;58.68;101148.00;5055666;28;66348;-42
2023/03/29 01:21:20;;;;;;;;;;;;;;;30.10;58.01;101135.09;5054070;28;70268;-43
2023/03/29 01:24:12;;;;;;;;;;;;;;;30.11;58.56;101144.88;5057185;28;66243;-42
2023/03/29 01:26:54;;;;;;;;;;;;;;;30.14;58.04;101147.16;5078452;27;70752;-42
2023/03/29 01:29:44;;;;;;;;;;;;;;;30.15;58.19;101143.41;5049724;28;66742;-42
2023/03/29 01:32:21;;;;;;;;;;;;;;;30.17;57.66;101146.75;5051978;28;70358;-42
2023/03/29 01:35:11;;;;;;;;;;;;;;;30.20;57.95;101154.44;5061947;28;66067;-42
2023/03/29 01:37:48;;;;;;;;;;;;;;;30.22;57.95;101155.09;5057756;27;71009;-43
2023/03/29 01:40:18;;;;;;;;;;;;;;;30.23;57.18;101154.06;5057311;28;65752;-42
2023/03/29 01:42:52;;;;;;;;;;;;;;;30.26;57.62;101161.75;5058935;27;70835;-42
2023/03/29 01:45:45;;;;;;;;;;;;;;;30.28;57.55;101154.28;5057976;28;65900;-42
2023/03/29 01:48:24;;;;;;;;;;;;;;;30.31;57.24;101147.56;5055972;28;69225;-42
2023/03/29 01:50:58;;;;;;;;;;;;;;;30.33;56.93;101150.09;5060269;27;66584;-41
2023/03/29 01:53:34;;;;;;;;;;;;;;;30.36;57.02;101149.66;5078138;27;70931;-42
2023/03/29 01:56:12;;;;;;;;;;;;;;;30.36;56.68;101146.97;5061736;28;66050;-42
2023/03/29 01:58:50;;;;;;;;;;;;;;;30.40;56.77;101148.22;5096739;27;68278;-42
2023/03/29 02:01:22;;;;;;;;;;;;;;;30.43;57.01;101150.50;5095039;27;67148;-42
2023/03/29 02:03:55;;;;;;;;;;;;;;;30.45;56.63;101148.38;5078705;27;70097;-42
2023/03/29 02:06:26;;;;;;;;;;;;;;;30.47;56.97;101140.91;5080060;27;66717;-43
2023/03/29 02:08:56;;;;;;;;;;;;;;;30.48;56.88;101138.00;5074342;27;70412;-43
2023/03/29 02:11:28;;;;;;;;;;;;;;;30.52;56.52;101138.41;5064892;27;66525;-43
2023/03/29 02:13:58;;;;;;;;;;;;;;;30.54;56.55;101141.72;5083528;27;68876;-42
2023/03/29 02:16:33;;;;;;;;;;;;;;;30.56;56.77;101136.91;5081233;27;67220;-43
2023/03/29 02:19:06;;;;;;;;;;;;;;;30.59;56.34;101136.50;5080758;27;69889;-43
2023/03/29 02:21:42;;;;;;;;;;;;;;;30.62;55.98;101137.94;5078495;27;66192;-42
2023/03/29 02:24:15;;;;;;;;;;;;;;;30.64;56.19;101128.56;5080717;27;70402;-42
2023/03/29 02:26:46;;;;;;;;;;;;;;;30.66;56.07;101131.91;5080888;27;66220;-42
2023/03/29 02:29:16;;;;;;;;;;;;;;;30.68;55.96;101126.28;5063296;28;68331;-42
2023/03/29 02:31:52;;;;;;;;;;;;;;;30.72;56.09;101131.03;5080525;27;66331;-42
2023/03/29 02:34:23;;;;;;;;;;;;;;;30.75;56.11;101131.66;5096466;27;70622;-42
2023/03/29 02:36:58;;;;;;;;;;;;;;;30.76;56.03;101122.47;5080021;27;66448;-41
2023/03/29 02:39:32;;;;;;;;;;;;;;;30.80;55.98;101129.19;5053312;28;70127;-42
2023/03/29 02:42:03;;;;;;;;;;;;;;;30.82;56.03;101116.25;5093509;27;67185;-41
2023/03/29 02:44:35;;;;;;;;;;;;;;;30.84;55.45;101120.44;5061104;28;69555;-44
2023/03/29 02:47:10;;;;;;;;;;;;;;;30.87;55.60;101114.56;5046481;27;66242;-42
2023/03/29 02:49:40;;;;;;;;;;;;;;;30.89;55.86;101117.06;5075781;27;70316;-43
2023/03/29 02:52:13;;;;;;;;;;;;;;;30.92;55.30;101113.91;5089939;27;66209;-43
2023/03/29 02:54:47;;;;;;;;;;;;;;;30.95;55.25;101110.78;5085831;27;70373;-42
2023/03/29 02:57:20;;;;;;;;;;;;;;;30.98;55.62;101112.22;5061472;27;65767;-42
2023/03/29 02:59:52;;;;;;;;;;;;;;;31.00;54.97;101110.97;5064222;28;69385;-43
2023/03/29 03:02:26;;;;;;;;;;;;;;;31.03;54.98;101107.00;5043974;28;66230;-43
2023/03/29 03:04:58;;;;;;;;;;;;;;;31.06;55.28;101106.56;5072096;28;70312;-42
2023/03/29 03:07:28;;;;;;;;;;;;;;;31.08;55.15;101099.03;5079977;27;65283;-41
2023/03/29 03:09:58;;;;;;;;;;;;;;;31.11;55.15;101093.19;5063399;28;69377;-43
2023/03/29 03:12:31;;;;;;;;;;;;;;;31.14;54.92;101088.16;5026914;28;66302;-42
2023/03/29 03:15:04;;;;;;;;;;;;;;;31.16;54.55;101099.63;5058637;28;69048;-41
2023/03/29 03:17:38;;;;;;;;;;;;;;;31.20;54.98;101091.88;5074743;28;66971;-43
2023/03/29 03:20:12;;;;;;;;;;;;;;;31.23;54.66;101093.31;5063054;28;69875;-42
2023/03/29 03:22:48;;;;;;;;;;;;;;;31.24;54.69;101095.00;5078984;27;65111;-44
2023/03/29 03:25:20;;;;;;;;;;;;;;;31.28;54.55;101090.81;5067442;27;68984;-42
2023/03/29 03:27:51;;;;;;;;;;;;;;;31.30;54.21;101094.13;5061945;27;66930;-42
2023/03/29 03:30:24;;;;;;;;;;;;;;;31.32;54.28;101090.16;5077823;27;70373;-41
2023/03/29 03:33:18;;;;;;;;;;;;;;;31.35;54.14;101088.91;5075916;27;66984;-42
2023/03/29 03:36:07;;;;;;;;;;;;;;;31.37;54.25;101081.38;5079896;27;70888;-43
2023/03/29 03:38:37;;;;;;;;;;;;;;;30.99;54.17;101022.63;5074006;27;67315;-42
2023/03/29 03:41:07;;;;;;;;;;;;;;;31.42;54.20;101089.69;5077863;27;70020;-43
2023/03/29 03:43:41;;;;;;;;;;;;;;;31.44;53.82;101084.88;5089102;27;67010;-42
2023/03/29 03:46:11;;;;;;;;;;;;;;;31.46;53.77;101073.84;5057901;28;70738;-44
2023/03/29 03:48:45;;;;;;;;;;;;;;;31.48;53.92;101075.28;5058441;28;66840;-42
2023/03/29 03:51:44;;;;;;;;;;;;;;;31.50;53.49;101073.16;5068467;27;70599;-42
2023/03/29 03:54:15;;;;;;;;;;;;;;;31.52;53.80;101071.06;5059145;28;66167;-42
2023/03/29 03:57:05;;;;;;;;;;;;;;;31.55;53.77;101073.34;5066523;27;70540;-42
2023/03/29 03:59:43;;;;;;;;;;;;;;;31.55;53.79;101073.34;5091954;27;66310;-42
2023/03/29 04:02:19;;;;;;;;;;;;;;;31.57;53.26;101054.97;5059043;28;70475;-42
2023/03/29 04:04:50;;;;;;;;;;;;;;;31.59;53.39;101058.31;5062232;28;65869;-42
2023/03/29 04:07:24;;;;;;;;;;;;;;;31.61;53.48;101060.78;5061279;28;70595;-43
2023/03/29 04:10:12;;;;;;;;;;;;;;;31.61;53.32;101039.91;5078914;27;65043;-42
2023/03/29 04:13:09;;;;;;;;;;;;;;;31.64;53.28;101037.81;5054961;28;70540;-42
2023/03/29 04:15:59;;;;;;;;;;;;;;;31.65;53.41;101034.03;5079029;27;66906;-42
2023/03/29 04:18:31;;;;;;;;;;;;;;;31.67;53.36;101031.94;5078512;27;70042;-43
2023/03/29 04:21:01;;;;;;;;;;;;;;;31.69;52.96;101019.00;5061652;28;65721;-43
2023/03/29 04:23:34;;;;;;;;;;;;;;;31.71;53.10;101011.47;5054431;28;70711;-41
2023/03/29 04:26:06;;;;;;;;;;;;;;;31.74;53.25;101025.41;5056615;27;65391;-43
2023/03/29 04:28:51;;;;;;;;;;;;;;;31.76;52.83;101022.47;5094557;27;70377;-42
2023/03/29 04:31:34;;;;;;;;;;;;;;;31.79;52.85;101011.19;5060803;28;66720;-42
2023/03/29 04:34:20;;;;;;;;;;;;;;;31.81;52.90;101012.59;5058664;28;72095;-42
2023/03/29 04:36:53;;;;;;;;;;;;;;;31.84;52.78;101008.59;5064616;27;67113;-43
2023/03/29 04:39:31;;;;;;;;;;;;;;;31.86;52.94;101006.50;5061215;28;69681;-43
2023/03/29 04:42:05;;;;;;;;;;;;;;;31.88;52.62;100990.03;5061602;28;66338;-40
2023/03/29 04:44:35;;;;;;;;;;;;;;;31.91;52.78;100993.13;5075883;27;70587;-42
2023/03/29 04:47:12;;;;;;;;;;;;;;;31.93;52.36;100982.91;5090774;27;66593;-43
2023/03/29 04:49:56;;;;;;;;;;;;;;;31.69;52.56;100932.22;5058005;28;70329;-42
2023/03/29 04:52:49;;;;;;;;;;;;;;;31.99;52.47;100965.72;5057510;28;67044;-42
2023/03/29 04:55:21;;;;;;;;;;;;;;;32.02;52.46;100970.69;5058045;28;69496;-41
2023/03/29 04:58:01;;;;;;;;;;;;;;;32.05;52.40;100961.25;5041511;27;66081;-50
2023/03/29 05:00:33;;;;;;;;;;;;;;;32.08;52.31;100951.84;5056207;27;70615;-43
2023/03/29 05:03:50;;;;;;;;;;;;;;;32.11;52.18;100956.81;5058502;28;66193;-43
2023/03/29 05:07:05;;;;;;;;;;;;;;;32.12;52.11;100947.59;5074616;27;70740;-42
2023/03/29 05:09:36;;;;;;;;;;;;;;;32.16;52.13;100946.13;5057432;27;66235;-42
2023/03/29 05:12:16;;;;;;;;;;;;;;;32.19;52.19;100942.94;5057257;28;69549;-43
2023/03/29 05:14:52;;;;;;;;;;;;;;;32.21;51.92;100946.25;5057230;28;66676;-42
2023/03/29 05:17:26;;;;;;;;;;;;;;;32.23;52.16;100941.41;5075443;27;69492;-42
2023/03/29 05:20:10;;;;;;;;;;;;;;;32.27;51.80;100931.78;5060973;27;66334;-43
2023/03/29 05:22:43;;;;;;;;;;;;;;;32.28;51.61;100917.97;5057568;28;69818;-43
2023/03/29 05:25:27;;;;;;;;;;;;;;;32.32;51.72;100917.50;5088069;27;66314;-43
2023/03/29 05:27:58;;;;;;;;;;;;;;;32.34;51.63;100920.81;5059546;28;70568;-43
2023/03/29 05:30:28;;;;;;;;;;;;;;;32.37;51.46;100912.22;5076066;27;66435;-43
2023/03/29 05:33:06;;;;;;;;;;;;;;;32.39;51.51;100913.66;5059770;28;70875;-42
2023/03/29 05:35:36;;;;;;;;;;;;;;;32.42;51.44;100904.22;5075720;27;66317;-48
2023/03/29 05:38:08;;;;;;;;;;;;;;;32.43;51.42;100898.56;5062258;28;69922;-43
2023/03/29 05:40:40;;;;;;;;;;;;;;;32.47;51.33;100896.25;5054856;27;66673;-42
2023/03/29 05:43:13;;;;;;;;;;;;;;;32.50;51.12;100887.63;5075032;27;70530;-43
2023/03/29 05:45:43;;;;;;;;;;;;;;;32.52;51.18;100884.69;5057700;27;66111;-42
2023/03/29 05:48:14;;;;;;;;;;;;;;;32.55;51.13;100878.78;5058951;28;70349;-43
2023/03/29 05:50:47;;;;;;;;;;;;;;;32.58;50.99;100878.34;5062782;28;66753;-43
2023/03/29 05:53:19;;;;;;;;;;;;;;;32.61;50.95;100875.16;5062071;27;70562;-43
2023/03/29 05:55:50;;;;;;;;;;;;;;;32.64;51.13;100870.06;5063755;28;68445;-42
2023/03/29 05:58:25;;;;;;;;;;;;;;;32.67;50.76;100861.44;5093953;27;69337;-43
2023/03/29 06:00:55;;;;;;;;;;;;;;;32.70;50.85;100852.00;5081497;27;66750;-42
2023/03/29 06:03:44;;;;;;;;;;;;;;;32.72;50.77;100856.16;5080557;27;69666;-40
2023/03/29 06:06:17;;;;;;;;;;;;;;;32.76;50.61;100855.69;5095610;27;66409;-42
2023/03/29 06:08:48;;;;;;;;;;;;;;;32.78;50.72;100848.97;5096079;27;69842;-43
2023/03/29 06:11:33;;;;;;;;;;;;;;;32.82;50.57;100850.16;5056133;28;66267;-42
2023/03/29 06:14:26;;;;;;;;;;;;;;;32.86;50.68;100840.47;5070087;27;70529;-42
2023/03/29 06:17:09;;;;;;;;;;;;;;;32.89;50.38;100829.13;5060870;28;66920;-42
2023/03/29 06:19:40;;;;;;;;;;;;;;;32.91;50.12;100824.28;5062177;28;70058;-43
2023/03/29 06:22:11;;;;;;;;;;;;;;;32.97;50.35;100824.41;5063233;28;65856;-42
2023/03/29 06:24:42;;;;;;;;;;;;;;;33.01;49.97;100815.56;5065382;27;69817;-43
2023/03/29 06:27:22;;;;;;;;;;;;;;;33.05;50.02;100810.50;5063494;27;66530;-42
2023/03/29 06:29:53;;;;;;;;;;;;;;;33.09;49.77;100811.66;5053849;27;69857;-42
2023/03/29 06:32:24;;;;;;;;;;;;;;;33.12;49.89;100795.72;5080279;27;65766;-42
2023/03/29 06:35:03;;;;;;;;;;;;;;;33.16;49.86;100796.09;5062103;28;69192;-41
2023/03/29 06:37:48;;;;;;;;;;;;;;;33.21;49.81;100804.34;5062687;28;65498;-42
2023/03/29 06:40:39;;;;;;;;;;;;;;;33.26;49.47;100796.28;5050907;28;70353;-42
2023/03/29 06:43:10;;;;;;;;;;;;;;;33.31;49.70;100793.69;5064605;28;67398;-43
2023/03/29 06:46:10;;;;;;;;;;;;;;;33.34;49.56;100776.88;5074300;27;71240;-43
2023/03/29 06:49:00;;;;;;;;;;;;;;;33.39;49.19;100778.91;5062324;27;66692;-42
2023/03/29 06:51:36;;;;;;;;;;;;;;;33.42;49.26;100772.16;5062175;27;70827;-43
2023/03/29 06:54:06;;;;;;;;;;;;;;;33.45;48.85;100766.22;5073590;27;65984;-43
2023/03/29 06:56:41;;;;;;;;;;;;;;;33.47;48.64;100766.81;5060861;27;70358;-42
2023/03/29 06:59:15;;;;;;;;;;;;;;;33.51;48.95;100770.69;5073875;27;64927;-41
2023/03/29 07:01:59;;;;;;;;;;;;;;;33.55;49.04;100761.03;5074530;27;70226;-43
2023/03/29 07:05:00;;;;;;;;;;;;;;;33.56;48.72;100757.25;5057969;27;65300;-42
2023/03/29 07:07:55;;;;;;;;;;;;;;;33.59;48.71;100751.31;5070977;28;70431;-43
2023/03/29 07:10:58;;;;;;;;;;;;;;;33.63;48.55;100741.63;5069489;27;66030;-43
2023/03/29 07:13:47;;;;;;;;;;;;;;;33.65;48.28;100734.03;5059600;28;68935;-42
2023/03/29 07:16:20;;;;;;;;;;;;;;;33.70;48.34;100736.84;5077886;27;66550;-42
2023/03/29 07:18:56;;;;;;;;;;;;;;;33.74;48.32;100726.28;5060155;28;70457;-42
2023/03/29 07:21:53;;;;;;;;;;;;;;;33.83;48.58;100724.03;5077592;27;66183;-43
2023/03/29 07:24:35;;;;;;;;;;;;;;;33.86;48.46;100728.97;5058364;27;70545;-42
2023/03/29 07:27:07;;;;;;;;;;;;;;;33.91;48.03;100718.19;5073779;27;66417;-42
2023/03/29 07:29:38;;;;;;;;;;;;;;;33.74;48.23;100678.19;5057887;28;69740;-43
2023/03/29 07:32:09;;;;;;;;;;;;;;;33.99;47.96;100706.88;5090667;27;66464;-42
2023/03/29 07:34:42;;;;;;;;;;;;;;;34.04;47.89;100709.69;5076455;27;70241;-42
2023/03/29 07:37:20;;;;;;;;;;;;;;;34.07;47.91;100690.19;5057613;28;66959;-43
2023/03/29 07:39:51;;;;;;;;;;;;;;;34.12;48.01;100690.25;5059798;28;69828;-43
2023/03/29 07:42:42;;;;;;;;;;;;;;;34.17;48.02;100690.34;5061238;27;67051;-43
2023/03/29 07:45:19;;;;;;;;;;;;;;;34.22;47.91;100695.06;5091983;27;69728;-43
2023/03/29 07:48:00;;;;;;;;;;;;;;;34.25;47.77;100684.50;5058063;28;65756;-43
2023/03/29 07:50:46;;;;;;;;;;;;;;;34.31;47.63;100681.84;5060152;28;70651;-44
2023/03/29 07:53:19;;;;;;;;;;;;;;;34.35;47.73;100681.13;5091253;27;66719;-42
2023/03/29 07:55:53;;;;;;;;;;;;;;;34.40;47.20;100677.63;5061206;28;69937;-43
2023/03/29 07:58:46;;;;;;;;;;;;;;;34.44;47.25;100673.34;5068595;27;67013;-42
2023/03/29 08:01:19;;;;;;;;;;;;;;;34.49;46.98;100673.41;5090546;27;69441;-43
2023/03/29 08:04:04;;;;;;;;;;;;;;;34.53;47.02;100681.91;5074211;27;65480;-43
2023/03/29 08:07:07;;;;;;;;;;;;;;;34.59;47.14;100673.59;5055142;27;69305;-43
2023/03/29 08:10:00;;;;;;;;;;;;;;;34.64;46.78;100670.13;5055467;27;65346;-43
2023/03/29 08:12:54;;;;;;;;;;;;;;;34.67;46.68;100670.44;5076385;27;69717;-42
2023/03/29 08:15:32;;;;;;;;;;;;;;;34.74;46.76;100669.44;5092341;27;67132;-43
2023/03/29 08:18:03;;;;;;;;;;;;;;;34.78;46.88;100665.94;5056464;28;70629;-42
2023/03/29 08:20:34;;;;;;;;;;;;;;;34.82;46.53;100655.38;5088532;27;66992;-43
2023/03/29 08:23:05;;;;;;;;;;;;;;;34.88;46.58;100665.25;5081054;27;70282;-42
2023/03/29 08:25:54;;;;;;;;;;;;;;;34.92;47.07;100663.69;5076891;27;65433;-41
2023/03/29 08:28:26;;;;;;;;;;;;;;;34.96;46.34;100651.19;5043943;28;69836;-43
2023/03/29 08:30:56;;;;;;;;;;;;;;;35.01;46.54;100653.97;5072714;27;67508;-42
2023/03/29 08:33:26;;;;;;;;;;;;;;;35.05;46.47;100649.69;5061302;28;68508;-43
2023/03/29 08:36:15;;;;;;;;;;;;;;;35.09;46.68;100644.56;5076756;27;65599;-43
2023/03/29 08:38:46;;;;;;;;;;;;;;;35.16;46.26;100652.53;5061930;27;70411;-43
2023/03/29 08:41:41;;;;;;;;;;;;;;;35.19;46.59;100655.59;5051050;28;65952;-43
2023/03/29 08:44:38;;;;;;;;;;;;;;;35.24;46.41;100652.09;5053366;27;68577;-42
2023/03/29 08:47:28;;;;;;;;;;;;;;;35.30;46.46;100656.50;5067494;27;66925;-43
2023/03/29 08:50:00;;;;;;;;;;;;;;;35.34;46.44;100649.47;5087483;27;69737;-44
2023/03/29 08:52:54;;;;;;;;;;;;;;;35.37;45.97;100640.78;5051583;28;66983;-43
2023/03/29 08:55:51;;;;;;;;;;;;;;;35.44;46.35;100640.56;5079512;27;70240;-43
2023/03/29 08:58:37;;;;;;;;;;;;;;;35.48;46.23;100647.97;5072303;27;66274;-43
2023/03/29 09:01:10;;;;;;;;;;;;;;;35.52;45.55;100643.69;5077594;27;68893;-43
2023/03/29 09:04:13;;;;;;;;;;;;;;;35.56;46.12;100633.09;5078615;27;67492;-43
2023/03/29 09:07:11;;;;;;;;;;;;;;;35.61;46.09;100630.41;5055847;27;69635;-41
2023/03/29 09:09:46;;;;;;;;;;;;;;;35.65;45.49;100631.53;5063523;27;66245;-42
2023/03/29 09:12:31;;;;;;;;;;;;;;;35.69;45.44;100631.81;5072562;28;69148;-43
2023/03/29 09:15:10;;;;;;;;;;;;;;;35.73;46.04;100632.97;5062274;28;66856;-43
2023/03/29 09:17:50;;;;;;;;;;;;;;;35.77;45.38;100645.00;5062642;28;69773;-41
2023/03/29 09:20:22;;;;;;;;;;;;;;;35.80;45.86;100649.94;5078097;27;66729;-43
2023/03/29 09:23:11;;;;;;;;;;;;;;;35.83;45.29;100654.06;5058181;28;70444;-43
2023/03/29 09:26:17;;;;;;;;;;;;;;;35.85;45.69;100644.53;5041700;28;65401;-43
2023/03/29 09:29:24;;;;;;;;;;;;;;;35.90;45.72;100646.47;5076710;27;70467;-42
2023/03/29 09:31:55;;;;;;;;;;;;;;;35.92;45.34;100655.25;5057727;27;67098;-43
2023/03/29 09:34:37;;;;;;;;;;;;;;;35.94;45.08;100656.63;5089418;27;69906;-43
2023/03/29 09:37:24;;;;;;;;;;;;;;;35.95;45.08;100655.53;5056204;27;66408;-42
2023/03/29 09:39:56;;;;;;;;;;;;;;;35.95;45.50;100657.44;5072704;27;69364;-41
2023/03/29 09:42:43;;;;;;;;;;;;;;;35.96;45.26;100654.44;5087862;27;67097;-42
2023/03/29 09:45:13;;;;;;;;;;;;;;;35.96;45.32;100665.38;5057240;27;69555;-42
2023/03/29 09:47:48;;;;;;;;;;;;;;;35.97;45.02;100669.75;5087848;27;66512;-43
2023/03/29 09:50:24;;;;;;;;;;;;;;;35.98;45.02;100676.84;5053327;27;69509;-42
2023/03/29 09:53:03;;;;;;;;;;;;;;;35.97;44.79;100683.41;5058753;28;66867;-42
2023/03/29 09:55:39;;;;;;;;;;;;;;;35.98;44.68;100685.03;5056893;28;70385;-42
2023/03/29 09:58:36;;;;;;;;;;;;;;;35.95;45.34;100680.09;5071226;27;65901;-43
2023/03/29 10:01:10;;;;;;;;;;;;;;;35.95;44.96;100674.66;5055451;28;70536;-43
2023/03/29 10:03:41;;;;;;;;;;;;;;;35.95;44.97;100688.28;5091392;27;65905;-44
2023/03/29 10:06:15;;;;;;;;;;;;;;;35.96;45.33;100695.38;5056276;27;70430;-42
2023/03/29 10:08:53;;;;;;;;;;;;;;;35.95;45.16;100704.69;5057834;28;65537;-43
2023/03/29 10:11:32;;;;;;;;;;;;;;;35.95;45.27;100706.59;5054066;27;69827;-42
2023/03/29 10:14:11;;;;;;;;;;;;;;;35.94;45.51;100722.16;5076746;27;66124;-43
2023/03/29 10:16:46;;;;;;;;;;;;;;;35.92;45.44;100716.13;5075576;27;70561;-44
2023/03/29 10:19:21;;;;;;;;;;;;;;;35.90;45.12;100726.47;5079402;27;66918;-43
2023/03/29 10:21:53;;;;;;;;;;;;;;;35.86;45.89;100713.56;5079842;27;69207;-43
2023/03/29 10:24:25;;;;;;;;;;;;;;;35.56;46.35;100710.28;5072977;27;66824;-43
2023/03/29 10:27:03;;;;;;;;;;;;;;;35.24;47.14;100712.88;5080536;27;70496;-44
2023/03/29 10:29:39;;;;;;;;;;;;;;;35.02;47.29;100718.34;5077912;27;66380;-44
2023/03/29 10:32:15;;;;;;;;;;;;;;;34.85;46.67;100718.38;5071447;27;69690;-44
2023/03/29 10:34:46;;;;;;;;;;;;;;;34.71;45.63;100733.41;5071809;27;66193;-43
2023/03/29 10:37:20;;;;;;;;;;;;;;;34.57;45.33;100724.75;5080639;27;70490;-43
2023/03/29 10:39:53;;;;;;;;;;;;;;;34.50;44.46;100729.53;5080676;27;66826;-46
2023/03/29 10:42:23;;;;;;;;;;;;;;;34.43;44.77;100728.88;5078954;27;70349;-42
2023/03/29 10:44:55;;;;;;;;;;;;;;;34.33;44.35;100736.91;5081507;27;68264;-41
2023/03/29 10:47:32;;;;;;;;;;;;;;;34.28;44.89;100737.63;5079678;27;69686;-41
2023/03/29 10:50:04;;;;;;;;;;;;;;;34.21;44.60;100732.34;5080427;27;66017;-47
2023/03/29 10:52:35;;;;;;;;;;;;;;;34.13;45.59;100735.50;5076947;27;69319;-42
2023/03/29 10:55:05;;;;;;;;;;;;;;;34.12;45.89;100738.44;5080739;27;66187;-41
2023/03/29 10:57:53;;;;;;;;;;;;;;;33.97;45.75;100725.38;5076320;27;69493;-43
2023/03/29 11:00:32;;;;;;;;;;;;;;;33.96;47.22;100734.59;5081432;27;66137;-42
2023/03/29 11:03:18;;;;;;;;;;;;;;;33.97;48.06;100736.25;5071412;27;68921;-44
2023/03/29 11:06:07;;;;;;;;;;;;;;;33.98;48.83;100729.72;5075811;27;67320;-44
2023/03/29 11:09:12;;;;;;;;;;;;;;;33.96;49.67;100740.03;5078742;27;69147;-44
2023/03/29 11:12:10;;;;;;;;;;;;;;;34.06;49.49;100742.97;5075738;27;65294;-45
2023/03/29 11:15:07;;;;;;;;;;;;;;;34.29;48.93;100749.34;5075712;27;69889;-44
2023/03/29 11:17:37;;;;;;;;;;;;;;;34.43;48.51;100764.28;5040340;27;66136;-43
2023/03/29 11:20:18;;;;;;;;;;;;;;;34.55;48.73;100766.91;5078300;27;69408;-43
2023/03/29 11:22:54;;;;;;;;;;;;;;;34.60;48.34;100770.59;5078958;27;66286;-45
2023/03/29 11:25:31;;;;;;;;;;;;;;;34.63;47.72;100772.81;5078184;27;69808;-44
2023/03/29 11:28:30;;;;;;;;;;;;;;;34.66;47.66;100785.13;5075707;27;67393;-44
2023/03/29 11:31:15;;;;;;;;;;;;;;;34.67;47.11;100790.31;5065666;28;70671;-43
2023/03/29 11:33:55;;;;;;;;;;;;;;;34.69;47.21;100793.63;5055759;28;66275;-44
2023/03/29 11:36:32;;;;;;;;;;;;;;;34.69;47.06;100796.34;5079373;28;68771;-44
2023/03/29 11:39:12;;;;;;;;;;;;;;;34.70;47.18;100800.72;5076706;27;66556;-44
2023/03/29 11:41:45;;;;;;;;;;;;;;;34.69;47.43;100800.97;5077891;27;70782;-44
2023/03/29 11:44:34;;;;;;;;;;;;;;;34.68;47.08;100807.47;5077805;27;66230;-45
2023/03/29 11:47:09;;;;;;;;;;;;;;;34.66;47.13;100802.28;5076579;27;70263;-43
2023/03/29 11:49:42;;;;;;;;;;;;;;;34.65;47.62;100803.34;5025321;28;65459;-43
2023/03/29 11:52:16;;;;;;;;;;;;;;;34.64;47.84;100815.31;5075271;27;71079;-44
2023/03/29 11:55:07;;;;;;;;;;;;;;;34.61;47.85;100815.81;5075313;27;66101;-45
2023/03/29 11:57:47;;;;;;;;;;;;;;;34.41;49.14;100823.63;5076594;27;69683;-45
2023/03/29 12:00:26;;;;;;;;;;;;;;;34.19;50.23;100818.06;5075933;27;65168;-43
2023/03/29 12:03:14;;;;;;;;;;;;;;;34.03;51.15;100819.63;5077901;27;69791;-43
2023/03/29 12:05:50;;;;;;;;;;;;;;;33.88;51.45;100827.50;5057565;28;66019;-44
2023/03/29 12:08:24;;;;;;;;;;;;;;;33.76;51.77;100833.81;5074885;27;70413;-45
2023/03/29 12:11:04;;;;;;;;;;;;;;;33.69;52.38;100833.13;5074111;27;65982;-44
2023/03/29 12:13:43;;;;;;;;;;;;;;;33.61;52.94;100841.66;5075951;27;70468;-44
2023/03/29 12:16:32;;;;;;;;;;;;;;;33.61;53.46;100851.72;5074273;27;66750;-43
2023/03/29 12:19:06;;;;;;;;;;;;;;;33.58;53.68;100850.31;5075839;27;69181;-44
2023/03/29 12:21:36;;;;;;;;;;;;;;;33.56;54.01;100857.88;5075358;27;66950;-43
2023/03/29 12:24:11;;;;;;;;;;;;;;;33.65;53.99;100859.16;5056455;28;69655;-46
2023/03/29 12:26:42;;;;;;;;;;;;;;;33.72;54.25;100869.91;5075533;28;66851;-43
2023/03/29 12:29:12;;;;;;;;;;;;;;;33.68;52.61;100874.97;5076904;27;70277;-43
2023/03/29 12:31:43;;;;;;;;;;;;;;;33.66;52.08;100879.84;5091093;27;65356;-43
2023/03/29 12:34:33;;;;;;;;;;;;;;;33.74;53.02;100879.50;5058417;28;70458;-43
2023/03/29 12:37:22;;;;;;;;;;;;;;;33.86;53.09;100881.34;5075816;28;66211;-43
2023/03/29 12:40:24;;;;;;;;;;;;;;;33.29;51.53;100835.75;5045212;28;70477;-42
2023/03/29 12:43:25;;;;;;;;;;;;;;;33.51;49.46;100901.25;5074694;28;66657;-43
2023/03/29 12:46:17;;;;;;;;;;;;;;;33.28;46.97;100902.91;5069578;28;69670;-43
2023/03/29 12:48:55;;;;;;;;;;;;;;;33.21;45.94;100906.78;5040081;28;66184;-44
2023/03/29 12:51:31;;;;;;;;;;;;;;;33.18;44.72;100902.66;5073959;27;69613;-43
2023/03/29 12:54:13;;;;;;;;;;;;;;;33.19;44.15;100901.63;5073955;28;66496;-43
2023/03/29 12:56:54;;;;;;;;;;;;;;;33.16;43.78;100910.25;5075056;27;70127;-42
2023/03/29 12:59:45;;;;;;;;;;;;;;;33.04;43.02;100904.81;5073598;27;66456;-42
2023/03/29 13:02:18;;;;;;;;;;;;;;;32.81;42.35;100913.69;5075404;27;70555;-40
2023/03/29 13:04:51;;;;;;;;;;;;;;;32.70;41.92;100922.63;5055922;28;67326;-41
2023/03/29 13:07:21;;;;;;;;;;;;;;;32.58;41.44;100924.50;5060439;28;70125;-41
2023/03/29 13:09:56;;;;;;;;;;;;;;;32.49;41.01;100924.81;5077640;27;67645;-41
2023/03/29 13:12:39;;;;;;;;;;;;;;;32.43;40.62;100920.28;5076197;27;69949;-41
2023/03/29 13:15:16;;;;;;;;;;;;;;;32.32;40.48;100929.22;5053151;28;66101;-42
2023/03/29 13:17:53;;;;;;;;;;;;;;;32.21;40.42;100925.38;5079063;27;70328;-41
2023/03/29 13:20:30;;;;;;;;;;;;;;;32.27;40.82;100929.06;5080088;27;66736;-41
2023/03/29 13:23:19;;;;;;;;;;;;;;;32.32;40.60;100926.50;5077299;27;69617;-43
2023/03/29 13:25:50;;;;;;;;;;;;;;;32.35;40.34;100925.22;5080983;27;66170;-41
2023/03/29 13:28:35;;;;;;;;;;;;;;;32.33;39.42;100922.72;5076266;27;69373;-42
2023/03/29 13:31:18;;;;;;;;;;;;;;;32.22;39.71;100918.88;5074526;27;65901;-43
2023/03/29 13:33:51;;;;;;;;;;;;;;;32.10;39.91;100917.19;5076617;27;70499;-42